x

8452944 - Conimicut Light, Ri (cptr1) Weather Station

8:48 - Wed 24th May 2017 All times are EDT. -4 hours from GMT.

  • Wind
    7mph, 7mph gusts
  • Sea Temp 60°f
  • Aire Temp 57°f
  • Sea Pressure 1008.2mb
  • 8452944 - Conimicut Light, Ri
  • 8452944 - Conimicut Light, Ri

More Historic Weather Station data

Upgrade to MSW Pro to gain access to the past 30 days of data for over 8000 Wavebouys and Weather Stations around the globe.

Join Pro

Comparision Forecast

View Surf forecast
   
mié 05/24 8:48 7 7 mph 1008.2mb 60f 57f
8:42 6 7 mph 1008.2mb 60f 57f
8:36 7 8 mph 1008.2mb 60f 57f
8:30 6 7 mph 1008.3mb 60f 57f
8:24 6 6 mph 1008.4mb 60f 57f
8:18 5 6 mph 1008.4mb 60f 57f
8:12 6 6 mph 1008.3mb 60f 57f
8:06 3 5 mph 1008.2mb 59f 57f
8:00 3 3 mph 1008.2mb 59f 57f
7:54 3 3 mph 1008.2mb 59f 57f
7:48 2 3 mph 1008.1mb 59f 57f
7:42 1 5 mph 1008.1mb 59f 57f
7:36 5 6 mph 1007.9mb 58f 57f
7:30 3 5 mph 1007.8mb 58f 57f
7:24 5 5 mph 1007.8mb 58f 57f
7:18 5 5 mph 1007.9mb 58f 57f
7:12 2 3 mph 1007.8mb 58f 56f
7:06 3 5 mph 1007.8mb 58f 56f
7:00 2 3 mph 1007.7mb 58f 56f
6:54 2 3 mph 1007.9mb 58f 56f
6:48 2 5 mph 1007.8mb 58f 56f
6:42 3 5 mph 1007.7mb 58f 56f
6:36 5 6 mph 1007.6mb 58f 56f
6:30 6 6 mph 1007.4mb 58f 56f
6:24 5 6 mph 1007.6mb 57f 56f
6:18 6 6 mph 1007.6mb 57f 56f
6:12 5 6 mph 1007.6mb 57f 56f
6:06 6 7 mph 1007.7mb 58f 57f
6:00 6 7 mph 1007.8mb 58f 57f
5:54 6 7 mph 1007.9mb 59f 57f
5:48 5 6 mph 1007.9mb 59f 57f
5:42 5 5 mph 1008mb 59f 57f
5:36 3 5 mph 1008mb 59f 57f
5:30 3 3 mph 1008.1mb 59f 57f
5:24 3 5 mph 1008.1mb 58f 57f
5:18 5 5 mph 1007.9mb 58f 57f
5:12 2 2 mph 1008.1mb 57f 57f
5:06  -  2 mph 1007.9mb 57f 57f
5:00 1 2 mph 1007.9mb 57f 57f
4:54 1 2 mph 1007.9mb 57f 57f
4:48  -  1 mph 1007.9mb 57f 57f
4:42  -  0 mph 1007.7mb 57f 57f
4:36  -  1 mph 1007.6mb 57f 57f
4:30  -  1 mph 1007.7mb 58f 57f
4:24 1 2 mph 1007.7mb 58f 57f
4:18  -  1 mph 1007.7mb 58f 57f
4:12  -  3 mph 1007.9mb 59f 57f
4:06 3 5 mph 1007.9mb 59f 56f
4:00 3 3 mph 1007.8mb 59f 57f
3:54 2 5 mph 1007.9mb 59f 56f
3:48 5 7 mph 1007.9mb 60f 56f
3:42 7 7 mph 1007.8mb 60f 57f
3:36 7 8 mph 1007.8mb 60f 57f
3:30 8 8 mph 1007.9mb 60f 57f
3:24 6 7 mph 1008.1mb 60f 57f
3:18 5 6 mph 1008.2mb 60f 57f
3:12 3 5 mph 1008.3mb 60f 57f
3:06 3 3 mph 1008.4mb 60f 57f
3:00 1 2 mph 1008.4mb 60f 56f
2:54 2 6 mph 1008.4mb 60f 56f
2:48 5 6 mph 1008.3mb - -
2:42 5 8 mph 1008.4mb - -
2:36 7 9 mph 1008.4mb - -
2:30 8 9 mph 1008.4mb 60f 57f
2:24 7 9 mph 1008.6mb 60f 57f
2:18 7 9 mph 1008.7mb 60f 57f
2:12 8 10 mph 1008.7mb 60f 57f
2:06 9 11 mph 1008.7mb 60f 57f
2:00 10 13 mph 1008.7mb 60f 57f
1:54 13 14 mph 1008.8mb 60f 57f
1:48 11 13 mph 1009mb 60f 58f
1:42 10 11 mph 1009.1mb 60f 58f
1:36 11 13 mph 1008.9mb 61f 58f
1:30 10 11 mph 1008.9mb 61f 58f
1:24 9 10 mph 1008.9mb 61f 58f
1:18 6 7 mph 1008.9mb 61f 58f
1:12 6 6 mph 1008.8mb 61f 58f
1:06 5 6 mph 1008.9mb 61f 58f
1:00 6 6 mph 1009mb 61f 58f
12:54 6 7 mph 1009.1mb 61f 58f
12:48 7 8 mph 1009.3mb 61f 58f
12:42 7 9 mph 1009.3mb 61f 58f
12:36 9 11 mph 1009.3mb 61f 57f
12:30 10 11 mph 1009.2mb 61f 57f
12:24 9 10 mph 1009.5mb 61f 57f
12:18 8 10 mph 1009.8mb 61f 57f
12:12 9 10 mph 1009.9mb 62f 57f
12:06 9 10 mph 1009.9mb 62f 57f
12:00 10 11 mph 1010mb 62f 57f
mar 05/23 11:54 10 14 mph 1010mb 62f 57f
11:48 13 14 mph 1010.1mb 62f 58f
11:42 13 14 mph 1010.1mb 62f 58f
11:36 11 13 mph 1010.1mb 62f 58f
11:30 11 14 mph 1010.1mb 62f 58f
11:24 13 14 mph 1010.2mb 62f 58f
11:18 14 15 mph 1010.1mb 62f 58f
11:12 14 15 mph 1010.1mb 62f 58f
11:06 11 14 mph 1010.2mb 62f 58f
11:00 11 14 mph 1010.1mb 62f 59f
10:54 13 14 mph 1010.1mb 62f 59f
10:48 13 14 mph 1010.2mb 62f 59f
10:42 11 14 mph 1010.2mb 62f 59f
10:36 14 15 mph 1010.2mb 62f 59f
10:30 14 15 mph 1010.2mb 62f 59f
10:24 11 13 mph 1010.3mb 62f 59f
10:18 11 13 mph 1010.4mb 62f 59f
10:12 11 14 mph 1010.4mb 62f 59f
10:06 10 11 mph 1010.3mb 62f 60f
10:00 8 9 mph 1010.2mb 62f 60f
9:48 6 6 mph 1010.3mb 62f 60f
9:42 5 6 mph 1010.3mb 62f 60f
9:36 5 7 mph 1010.3mb 62f 59f
9:30 6 9 mph 1010.3mb 62f 59f
9:24 9 11 mph 1010.1mb 61f 59f
9:18 10 11 mph - - -
9:12 10 11 mph 1010.1mb 61f 59f
9:06 9 11 mph 1010.3mb 61f 60f
9:00 10 13 mph 1010.3mb 61f 60f
8:48 14 15 mph 1010.2mb 61f 60f
8:42 14 16 mph 1010.1mb 61f 60f
8:36 14 16 mph 1010mb 60f 61f
8:30 15 15 mph 1009.8mb 60f 61f
8:24 13 14 mph 1009.9mb 60f 61f
8:18 13 15 mph 1009.9mb 59f 61f
8:12 13 14 mph 1009.9mb 59f 61f
8:06 11 13 mph 1009.8mb 59f 61f
8:00 13 14 mph 1009.7mb 59f 62f
7:54 11 13 mph 1009.6mb 59f 62f
7:48 10 11 mph 1009.5mb 59f 63f
7:42 9 11 mph 1009.5mb 59f 63f
7:36 7 9 mph 1009.5mb 59f 62f
7:30 9 10 mph 1009.6mb 59f 63f
7:24 10 13 mph 1009.6mb 59f 63f
7:18 11 13 mph 1009.5mb 59f 63f
7:12 10 10 mph 1009.6mb 59f 63f
7:06 10 11 mph 1009.5mb 59f 63f
7:00 11 13 mph 1009.5mb 59f 63f
6:48 13 14 mph 1009.6mb 59f 64f
6:42 13 14 mph 1009.6mb 59f 64f
6:36 13 13 mph 1009.4mb 59f 64f
6:30 13 14 mph 1009.5mb 59f 64f
6:24 13 14 mph 1009.6mb 59f 64f
6:18 9 11 mph 1009.7mb 59f 64f
6:12 9 10 mph 1009.6mb 59f 65f
6:06 8 8 mph 1009.4mb 59f 66f
6:00 9 9 mph 1009.4mb 59f 66f
5:54 9 9 mph 1009.5mb 59f 66f
5:48 8 8 mph 1009.5mb 58f 67f
5:42 7 8 mph 1009.7mb 58f 67f
5:36 8 8 mph 1009.6mb 58f 67f
5:30 8 8 mph 1009.6mb 58f 66f
5:24 7 8 mph 1009.6mb 58f 66f
5:18 7 7 mph 1009.5mb 58f 66f
5:12 2 2 mph 1009.6mb 58f 68f
5:06 2 3 mph 1009.7mb 58f 68f
5:00 2 3 mph 1009.8mb 58f 67f
4:54 1 2 mph 1009.8mb 58f 68f
4:48  -  2 mph 1009.8mb 58f 70f
4:42 1 1 mph 1009.9mb 57f 70f
4:36  -  2 mph 1009.7mb 57f 70f
4:30 2 2 mph 1009.7mb 57f 70f
4:24 2 5 mph 1009.8mb 58f 70f
4:18 5 6 mph 1009.9mb 58f 70f
4:12 6 6 mph 1009.9mb 58f 69f
4:06 6 7 mph 1009.9mb 58f 69f
4:00 7 7 mph 1010mb 58f 69f
3:54 7 9 mph 1010.1mb 58f 69f
3:48 6 7 mph 1010.2mb 58f 69f
3:42 8 8 mph 1010.3mb 58f 69f
3:36 5 6 mph 1010.5mb 58f 69f
3:30 7 7 mph 1010.4mb 58f 69f
3:24 7 8 mph 1010.4mb 58f 69f
3:18 7 9 mph 1010.4mb 59f 69f
3:12 7 8 mph 1010.5mb 59f 68f
3:06 7 8 mph 1010.4mb 59f 67f
3:00 6 11 mph 1010.4mb 60f 69f
2:54 11 13 mph 1010.5mb 60f 68f
2:48 10 13 mph 1010.4mb 60f 67f
2:42 10 14 mph 1010.5mb 60f 67f
2:36 11 14 mph 1010.6mb 60f 67f
2:30 10 14 mph 1010.6mb 60f 67f
2:24 14 15 mph 1010.5mb 60f 67f
2:18 14 16 mph 1010.5mb 60f 67f
2:12 11 14 mph 1010.5mb 60f 67f
2:06 8 9 mph 1010.6mb 61f 67f
2:00 7 9 mph 1010.7mb 61f 67f
1:54 8 10 mph 1010.8mb 61f 67f
1:48 8 14 mph 1011.1mb 61f 68f
1:42 9 13 mph 1011.2mb 61f 68f
1:36 8 11 mph 1011.2mb 61f 68f
1:30 7 14 mph 1011.1mb 61f 67f
1:24 8 10 mph 1011.1mb 61f 67f
1:18 7 10 mph 1011.2mb 61f 66f
1:12 10 13 mph 1011.3mb 61f 67f
1:06 6 9 mph 1011.5mb 61f 65f
1:00 5 7 mph 1011.5mb 61f 64f
12:54 6 7 mph 1011.7mb 61f 64f
12:48 5 9 mph 1011.7mb 61f 64f
12:42 7 8 mph 1011.8mb 61f 64f
12:36 7 13 mph 1012mb 61f 65f
12:30 11 14 mph 1012.2mb 61f 65f
12:24 11 15 mph 1012.4mb 61f 65f
12:18 11 14 mph 1012.5mb 61f 64f
12:12 10 13 mph 1012.7mb 61f 64f
12:06 11 14 mph 1012.8mb 61f 64f
12:00 10 14 mph 1012.8mb 61f 64f
11:54 11 15 mph 1012.8mb 61f 63f
11:48 13 17 mph 1012.7mb 61f 63f
11:42 11 13 mph 1012.8mb 61f 63f
11:36 10 15 mph 1012.6mb 61f 63f
11:30 9 16 mph 1012.6mb 61f 64f
11:24 14 16 mph 1012.5mb 60f 63f
11:18 11 14 mph 1012.4mb 60f 63f
11:12 14 16 mph 1012.5mb 60f 62f
11:06 13 17 mph 1012.8mb 60f 62f
11:00 15 18 mph 1012.7mb 60f 62f
10:54 14 18 mph 1012.8mb 60f 62f
10:48 15 17 mph 1012.8mb 60f 62f
10:42 15 17 mph 1012.9mb 60f 61f
10:36 14 20 mph 1012.8mb 60f 61f
10:30 16 23 mph 1012.8mb 60f 61f
10:24 20 22 mph 1012.6mb 60f 60f
10:18 17 22 mph 1012.7mb 60f 60f
10:12 16 17 mph 1012.8mb 60f 60f
10:06 14 16 mph 1013mb 60f 60f
10:00 13 15 mph 1013.2mb 60f 60f
9:54 15 16 mph 1013.3mb 60f 60f
9:48 9 11 mph 1013.5mb 60f 60f
9:42 10 13 mph 1013.4mb 60f 59f
9:36 9 10 mph 1013.3mb 60f 59f
9:30 9 11 mph 1013.4mb 60f 59f
9:24 7 11 mph 1013.5mb 60f 59f
9:18 8 9 mph 1013.4mb 60f 58f
9:12 8 11 mph 1013.4mb 60f 58f
9:06 9 11 mph 1013.4mb 60f 57f
9:00 9 10 mph 1013.4mb 60f 56f
8:54 9 10 mph 1013.4mb 60f 56f
8:48 8 10 mph 1013.4mb 60f 56f
8:42 10 13 mph 1013.7mb 59f 56f
8:36 11 15 mph 1013.6mb 59f 57f
8:30 11 16 mph 1013.5mb 59f 56f
8:24 13 14 mph 1013.5mb 59f 56f
8:18 14 15 mph 1013.4mb 59f 56f
8:12 13 16 mph 1013.5mb 59f 55f
8:06 14 15 mph 1013.4mb 59f 55f
8:00 13 14 mph 1013.5mb 59f 55f
7:54 11 14 mph 1013.6mb 59f 55f
7:48 13 14 mph 1013.5mb 59f 55f
7:42 13 15 mph 1013.3mb 59f 55f
7:36 13 17 mph 1013.4mb 59f 55f
7:30 13 14 mph 1013.6mb 59f 55f
7:24 11 13 mph 1013.4mb 59f 55f
7:18 10 14 mph 1013.3mb 59f 54f
7:12 13 14 mph 1013.4mb 59f 54f
7:06 13 14 mph 1013.4mb 59f 54f
7:00 13 14 mph 1013.5mb 59f 54f
6:54 13 14 mph 1013.2mb 59f 54f
6:48 11 13 mph 1013.3mb 59f 54f
6:42 9 10 mph 1013.5mb 59f 54f
6:36 9 10 mph 1013.5mb 59f 54f
6:30 8 9 mph 1013.6mb 59f 54f
6:24 8 9 mph 1013.7mb 59f 54f
6:18 6 8 mph 1013.6mb 59f 54f
6:12 7 8 mph 1013.5mb 59f 54f
6:06 7 9 mph 1013.4mb 59f 54f
6:00 7 9 mph 1013.3mb 59f 54f
5:54 8 9 mph 1013.2mb 59f 54f
5:48 7 9 mph 1013.2mb 59f 54f
5:42 8 10 mph 1013.1mb 59f 54f
5:36 7 9 mph 1013.1mb 59f 54f
5:30 9 11 mph 1013mb 59f 54f
5:24 10 14 mph 1013.1mb 59f 54f
5:18 11 14 mph 1012.9mb 59f 54f
5:12 9 13 mph 1012.8mb 59f 54f
5:06 9 10 mph 1012.7mb 59f 54f
5:00 10 15 mph 1012.8mb 59f 55f
4:54 11 14 mph 1012.8mb 59f 55f
4:48 11 13 mph 1012.8mb 59f 55f
4:42 10 13 mph 1012.8mb 59f 55f
4:36 11 14 mph 1012.8mb 59f 55f
4:30 11 14 mph 1012.9mb 59f 55f
4:24 13 15 mph 1012.8mb 59f 55f
4:18 14 16 mph 1012.8mb 59f 55f
4:12 14 16 mph 1012.7mb 59f 55f
4:06 15 16 mph 1012.8mb 59f 55f
4:00 15 16 mph 1012.9mb 59f 55f
3:54 14 15 mph 1012.9mb 59f 55f
3:48 15 16 mph 1012.9mb 59f 55f
3:42 15 16 mph 1012.9mb 59f 55f
3:36 11 13 mph 1012.9mb 59f 55f
3:30 13 15 mph 1012.9mb 59f 55f
3:24 14 15 mph 1012.8mb 59f 55f
3:18 15 16 mph 1012.7mb 59f 56f
3:12 14 15 mph 1012.6mb 59f 56f
3:06 11 13 mph 1012.6mb 59f 56f
3:00 9 11 mph 1012.5mb 59f 57f
2:54 8 10 mph 1012.5mb 59f 57f
2:48 8 9 mph 1012.4mb 59f -
2:42 8 9 mph 1012.4mb 59f -
2:36 6 8 mph 1012.7mb 59f -
2:30 8 9 mph 1012.8mb 59f 57f
2:24 7 7 mph 1012.9mb 59f 57f
2:18 6 6 mph 1012.8mb 59f 57f
2:12 5 5 mph 1012.9mb 59f 57f
2:06 5 6 mph 1012.9mb 59f 57f
2:00 6 6 mph 1013mb 59f 56f
1:54 5 5 mph 1013mb 59f 56f
1:48 3 5 mph 1013mb 59f 56f
1:42 3 3 mph 1013mb 59f 56f
1:36 1 2 mph 1012.9mb 59f 56f
1:30 2 3 mph 1012.9mb 59f 56f
1:24 3 5 mph 1013.1mb 59f 56f
1:18 5 6 mph 1013.3mb 59f 56f
1:12 5 6 mph 1013.2mb 59f 56f
1:06 7 8 mph 1013.2mb 59f 56f
1:00 7 8 mph 1013.3mb 59f 56f
12:54 7 8 mph 1013.3mb 59f 56f
12:48 7 9 mph 1013.4mb 59f 56f
12:42 9 10 mph 1013.5mb 59f 56f
12:36 9 10 mph 1013.6mb 59f 56f
12:30 10 10 mph 1013.7mb 59f 56f
12:24 8 9 mph 1013.8mb 59f 56f
12:18 7 9 mph 1013.9mb 59f 56f
12:12 7 8 mph 1014mb 59f 56f
12:06 6 7 mph 1014.2mb 59f 56f
12:00 6 8 mph 1014.3mb 59f 56f
lun 05/22 11:54 8 10 mph 1014.3mb 59f 56f
11:48 10 13 mph 1014.3mb 59f 56f
11:42 11 14 mph 1014.3mb 59f 56f
11:36 13 15 mph 1014.2mb 59f 56f
11:30 11 14 mph 1014.2mb 59f 56f
11:24 13 15 mph 1014.2mb 59f 56f
11:18 14 17 mph 1014.2mb 59f 56f
11:12 16 20 mph 1014.3mb 59f 56f
11:06 18 21 mph 1014.3mb 59f 56f
11:00 18 22 mph 1014.3mb 59f 56f
10:54 18 21 mph 1014.3mb 59f 56f
10:48 17 20 mph 1014.5mb 59f 57f
10:42 18 21 mph 1014.6mb 59f 57f
10:36 16 20 mph 1014.7mb 59f 57f
10:30 16 23 mph 1014.8mb 59f 57f
10:24 20 23 mph 1014.9mb 59f 57f
10:18 18 22 mph 1014.9mb 59f 57f
10:12 20 22 mph 1015mb 59f 57f
10:06 17 22 mph 1015.1mb 59f 57f
10:00 18 21 mph 1015.2mb 59f 57f
9:54 16 18 mph 1015.2mb 59f 57f
9:48 11 13 mph 1015.3mb 59f 57f
9:42 11 13 mph 1015.2mb 59f 57f
9:36 8 10 mph 1015.4mb 59f 56f
9:30 10 13 mph 1015.5mb 59f 56f
9:24 11 17 mph 1015.6mb 59f 56f
9:18 14 18 mph 1015.7mb 59f 56f
9:12 14 18 mph 1015.8mb 59f 56f
9:06 16 18 mph 1015.7mb 59f 56f
9:00 16 22 mph 1015.5mb 59f 56f
8:54 21 24 mph 1015.3mb 59f 56f
8:48 20 22 mph 1015.3mb 59f 57f
8:42 18 20 mph 1015.4mb 59f 56f
8:36 18 21 mph 1015.6mb 59f 56f
8:30 18 21 mph 1015.7mb 59f 56f
8:24 17 21 mph 1015.8mb 59f 56f
8:18 14 16 mph 1015.9mb 59f 56f
8:12 14 17 mph 1015.9mb 59f 56f
8:06 15 17 mph 1015.9mb 59f 56f
8:00 14 16 mph 1015.9mb 59f 56f
7:54 14 17 mph 1016mb 59f 56f
7:48 15 17 mph 1016mb 59f 56f
7:42 14 15 mph 1016mb 59f 55f
7:36 13 14 mph 1016.2mb 59f 55f
7:30 11 14 mph 1016.3mb 60f 55f
7:24 11 14 mph 1016.4mb 60f 55f
7:18 13 15 mph 1016.5mb 60f 55f
7:12 14 15 mph 1016.6mb 60f 55f
7:06 14 15 mph 1016.6mb 60f 54f
7:00 13 15 mph 1016.7mb 60f 54f
6:54 14 16 mph 1016.7mb 60f 54f
6:48 14 16 mph 1016.7mb 60f 54f
6:42 15 17 mph 1016.7mb 60f 54f
6:36 15 16 mph 1016.8mb 59f 54f
6:30 15 17 mph 1016.9mb 59f 53f
6:24 16 20 mph 1016.8mb 59f 53f
6:18 16 18 mph 1016.9mb 59f 53f
6:12 15 16 mph 1017mb 59f 53f
6:06 14 15 mph 1017.2mb 59f 53f
6:00 10 14 mph 1017.4mb 59f 53f
5:54 13 15 mph 1017.6mb 59f 53f
5:48 13 16 mph 1017.6mb 59f 53f
5:42 15 17 mph 1017.7mb 59f 53f
5:36 14 15 mph 1017.6mb 59f 53f
5:30 14 16 mph 1017.6mb 59f 53f
5:24 15 17 mph 1017.7mb 59f 52f
5:18 14 15 mph 1017.8mb 59f 52f
5:12 11 14 mph 1018mb 59f 52f
5:06 14 16 mph 1018mb 59f 52f
5:00 14 16 mph 1018mb 59f 52f
4:54 15 16 mph 1018mb 59f 51f
4:48 14 15 mph 1018.3mb 59f 51f
4:42 14 14 mph 1018.5mb 59f 51f
4:36 13 15 mph 1018.7mb 59f 51f
4:30 13 15 mph 1018.7mb 59f 51f
4:24 13 15 mph 1018.7mb 59f 51f
4:18 14 16 mph 1018.8mb 59f 51f
4:12 14 17 mph 1018.8mb 59f 51f
4:06 15 16 mph 1018.9mb 59f 51f
4:00 15 17 mph 1019mb 59f 51f
3:54 14 17 mph 1019.1mb 59f 51f
3:48 17 18 mph 1019.4mb 59f 51f
3:42 20 23 mph 1019.6mb 59f 51f
3:36 20 23 mph 1019.7mb 59f 52f
3:30 18 23 mph 1019.6mb 59f 53f
3:24 17 22 mph 1019.5mb 59f 53f
3:18 20 22 mph 1019.5mb 59f 54f
3:12 18 22 mph 1019.5mb 59f 54f
3:06 21 22 mph 1019.4mb 59f 54f
3:00 18 22 mph 1019.4mb 59f 54f
2:54 17 22 mph 1019.5mb 59f 54f
2:48 20 22 mph 1019.6mb 58f 54f
2:42 20 24 mph 1019.7mb 58f 53f
2:36 23 25 mph 1019.7mb 58f 54f
2:30 22 24 mph 1019.8mb 58f 54f
2:24 22 25 mph 1019.8mb 58f 55f
2:18 23 25 mph 1019.8mb 59f 55f
2:12 18 21 mph 1020mb 59f 55f
2:06 17 20 mph 1020mb 59f 55f
2:00 18 21 mph 1020.1mb 59f 55f
1:54 15 20 mph 1020.2mb 59f 55f
1:48 16 20 mph 1020.2mb 59f 55f
1:42 16 18 mph 1020.2mb 59f 55f
1:36 17 18 mph 1020.2mb 59f 55f
1:30 18 20 mph 1020.4mb 59f 55f
1:24 16 20 mph 1020.4mb 59f 55f
1:18 15 17 mph 1020.3mb 59f 55f
1:12 14 17 mph 1020.5mb 59f 55f
1:06 16 18 mph 1020.6mb 59f 55f
1:00 15 17 mph 1020.7mb 59f 55f
12:54 16 17 mph 1020.6mb 59f 55f
12:48 16 18 mph 1020.8mb 59f 55f
12:42 16 18 mph 1020.8mb 59f 55f
12:36 17 20 mph 1020.9mb 59f 55f
12:30 18 20 mph 1020.9mb 59f 55f
12:24 17 18 mph 1020.9mb 59f 55f
12:18 15 20 mph 1021.1mb 59f 55f
12:12 16 18 mph 1021.1mb 59f 55f
12:06 17 20 mph 1021.1mb 59f 55f
12:00 17 18 mph 1021.1mb 59f 55f
11:54 14 17 mph 1021.3mb 59f 55f
11:48 16 18 mph 1021.5mb 59f 55f
11:42 17 21 mph 1021.6mb 59f 55f
11:36 14 18 mph 1021.8mb 59f 55f
11:30 16 21 mph 1021.9mb 59f 55f
11:24 17 23 mph 1021.8mb 59f 55f
11:18 18 22 mph 1021.8mb 59f 55f
11:12 16 20 mph 1021.9mb 59f 54f
11:06 14 21 mph 1022mb 59f 55f
11:00 20 21 mph 1022mb 59f 55f
10:54 17 22 mph 1022.1mb 59f 55f
10:48 20 21 mph 1022.1mb 59f 54f
10:42 18 20 mph 1022.2mb 59f 55f
10:36 18 23 mph 1022.3mb 60f 55f
10:30 18 21 mph 1022.3mb 60f 55f
10:24 16 18 mph 1022.3mb 60f 54f
10:18 16 18 mph 1022.4mb 60f 54f
10:12 15 18 mph 1022.3mb 60f 54f
10:06 15 17 mph 1022.3mb 60f 54f
10:00 14 17 mph 1022.4mb 60f 54f
9:54 14 17 mph 1022.5mb 60f 54f
9:48 15 18 mph 1022.5mb 60f 54f
9:30 16 20 mph 1022.5mb 60f 54f
9:24 16 18 mph 1022.5mb 60f 54f
9:18 16 20 mph 1022.4mb 60f 54f
9:12 15 20 mph 1022.5mb 60f 54f
9:06 16 18 mph 1022.6mb 60f 53f
9:00 15 17 mph 1022.7mb 60f 53f
8:54 16 17 mph 1022.8mb 60f 54f
8:48 15 17 mph 1022.9mb 60f 53f
8:42 16 17 mph 1022.9mb 60f 53f
8:36 16 17 mph 1022.9mb 60f 54f
8:30 15 16 mph 1023mb 60f 54f
8:24 14 16 mph 1022.9mb 59f 54f
8:18 15 16 mph 1022.8mb 59f 54f
8:12 13 15 mph 1023mb 59f 54f
8:06 14 15 mph 1023.1mb 59f 54f
8:00 13 14 mph 1023.1mb 59f 54f
7:54 14 15 mph 1023.2mb 60f 53f
7:48 11 14 mph 1023.2mb 60f 54f
7:42 13 15 mph 1023.1mb 60f 54f
7:36 9 13 mph 1023.2mb 60f 54f
7:30 9 11 mph 1023.2mb 60f 53f
7:24 9 11 mph 1023.2mb 60f 53f
7:18 9 11 mph 1023.1mb 60f 53f
7:12 10 14 mph 1023.2mb 60f 53f
7:06 11 14 mph 1023.2mb 60f 54f
7:00 13 14 mph 1023.3mb 60f 54f
6:54 13 14 mph 1023.3mb 60f 54f
6:48 10 11 mph 1023.3mb 60f 54f
6:42 9 11 mph 1023.3mb 60f 54f
6:36 9 11 mph 1023.4mb 60f 54f
6:30 9 11 mph 1023.4mb 60f 54f
6:24 8 9 mph 1023.4mb 60f 54f
6:18 7 8 mph 1023.5mb 59f 53f
6:12 7 8 mph 1023.5mb 59f 53f
6:06 7 9 mph 1023.5mb 59f 53f
6:00 8 9 mph 1023.6mb 59f 53f
5:54 8 9 mph 1023.7mb 59f 53f
5:48 7 11 mph 1023.6mb 59f 53f
5:42 9 10 mph 1023.6mb 59f 53f
5:36 7 8 mph 1023.5mb 59f 53f
5:30 6 9 mph 1023.5mb 59f 53f
5:24 6 7 mph 1023.6mb 59f 53f
5:18 5 6 mph 1023.7mb 59f 53f
5:12 6 7 mph 1023.7mb 59f 53f
5:06 7 9 mph 1023.6mb 59f 53f
5:00 9 10 mph 1023.6mb 59f 53f
4:54 8 9 mph 1023.5mb 59f 53f
4:48 8 9 mph 1023.5mb 59f 53f
4:42 8 10 mph 1023.4mb 59f 53f
4:36 5 7 mph 1023.4mb 59f 53f
4:30 8 9 mph 1023.6mb 59f 53f
4:24 6 9 mph 1023.6mb 59f 53f
4:18 7 9 mph 1023.7mb 59f 53f
4:12 8 9 mph 1023.7mb 59f 53f
4:06 8 9 mph 1023.5mb 59f 53f
4:00 7 8 mph 1023.3mb 59f 53f
3:54 6 7 mph 1023.2mb 59f 53f
3:48 6 8 mph 1023.1mb 59f 53f
3:42 7 8 mph 1023.2mb 59f 53f
3:36 7 8 mph 1023.1mb 59f 53f
3:30 8 8 mph 1023.2mb 59f 53f
3:24 8 8 mph 1023.3mb 59f 53f
3:18 7 9 mph 1023.1mb 59f 53f
3:12 6 7 mph 1023.2mb 59f 53f
3:06 6 7 mph 1023.4mb 59f 53f
3:00 6 7 mph 1023.5mb 59f 53f
2:54 6 7 mph 1023.4mb 60f 53f
2:48 7 8 mph 1023.5mb 60f 53f
2:42 7 8 mph 1023.7mb 60f 53f
2:36 6 8 mph 1023.8mb 60f 53f
2:30 7 8 mph 1023.8mb 60f 53f
2:24 7 8 mph 1023.8mb 60f 53f
2:18 6 8 mph 1024mb 60f 53f
2:12 7 8 mph 1024.1mb 60f 53f
2:06 6 7 mph 1024mb 60f 53f
2:00 6 7 mph 1024mb 60f 53f
1:54 6 8 mph 1024.2mb 60f 53f
1:48 7 8 mph 1024.1mb 60f 53f
1:42 7 8 mph 1024.2mb 60f 53f
1:36 8 9 mph 1024.4mb 60f 53f
1:30 8 9 mph 1024.4mb 60f 53f
1:24 8 9 mph 1024.5mb 60f 53f
1:18 7 9 mph 1024.4mb 60f 54f
1:12 9 10 mph 1024.4mb 60f 54f
1:06 8 9 mph 1024.3mb 60f 54f
1:00 8 10 mph 1024.4mb 59f 54f
12:54 8 9 mph 1024.4mb 59f 54f
12:48 8 11 mph 1024.5mb 59f 54f
12:42 10 11 mph 1024.7mb 59f 54f
12:36 8 10 mph 1024.7mb 59f 54f
12:30 8 11 mph 1024.8mb 59f 54f
12:24 10 11 mph 1024.8mb 59f 54f
12:18 9 10 mph 1024.9mb 59f 54f
12:12 10 11 mph 1024.8mb 58f 54f
12:06 10 11 mph 1024.9mb 58f 54f
12:00 11 13 mph 1024.9mb 58f 54f
dom 05/21 11:54 9 13 mph 1025.1mb 58f 55f
11:48 10 13 mph 1025.1mb 58f 55f
11:42 9 11 mph 1024.9mb 58f 55f
11:36 9 10 mph 1025mb 58f 55f
11:30 10 11 mph 1025mb 58f 55f
11:24 10 13 mph 1025.2mb 58f 55f
11:18 10 11 mph 1025.1mb 58f 55f
11:12 9 11 mph 1025.2mb 58f 55f
11:06 11 13 mph 1025.4mb 58f 55f
11:00 11 14 mph 1025.5mb 58f 55f
10:54 11 13 mph 1025.6mb 58f 55f
10:48 11 13 mph 1025.7mb 58f 55f
10:42 10 11 mph 1025.7mb 58f 55f
10:36 9 10 mph 1025.8mb 58f 55f
10:30 9 10 mph 1025.9mb 58f 55f
10:24 8 9 mph 1025.9mb 58f 55f
10:18 8 10 mph 1026mb 58f 55f
10:12 9 15 mph 1026.1mb 58f 56f
10:06 14 16 mph 1026.1mb 58f 56f
10:00 14 14 mph 1026.1mb 58f 56f
9:54 11 14 mph 1026mb 58f 56f
9:48 10 15 mph 1026mb 58f 56f
9:42 13 15 mph 1026.1mb 58f 56f
9:36 13 16 mph 1025.9mb 58f 56f
9:30 13 16 mph 1025.7mb 58f 56f
9:24 15 16 mph 1025.7mb 58f 56f
9:18 15 17 mph 1025.7mb 58f 56f
9:12 16 17 mph 1025.8mb 58f 56f
9:06 14 16 mph 1025.7mb 58f 56f
9:00 14 15 mph 1025.8mb 58f 56f
8:54 15 16 mph 1025.9mb 58f 56f
8:48 15 18 mph 1026mb 58f 56f
8:42 16 20 mph 1025.8mb 58f 56f
8:36 16 17 mph 1025.8mb 59f 56f
8:30 16 18 mph 1025.7mb 58f 56f
8:24 16 20 mph 1025.6mb 59f 57f
8:18 18 21 mph 1025.6mb 59f 57f
8:12 18 20 mph 1025.5mb 59f 57f
8:06 17 22 mph 1025.4mb 59f 57f
8:00 20 22 mph 1025.3mb 59f 57f
7:54 21 22 mph 1025.3mb 59f 57f
7:48 21 22 mph 1025.4mb 59f 57f
7:42 18 22 mph 1025.6mb 59f 58f
7:36 21 22 mph 1025.6mb 59f 57f
7:30 21 23 mph 1025.6mb 59f 58f
7:24 22 23 mph 1025.6mb 59f 58f
7:18 21 24 mph 1025.6mb 60f 58f
7:12 23 24 mph 1025.6mb 60f 58f
7:06 22 23 mph 1025.5mb 60f 58f
7:00 22 25 mph 1025.5mb 60f 58f
6:54 22 24 mph 1025.5mb 60f 58f
6:48 23 25 mph 1025.5mb 60f 58f
6:42 22 25 mph 1025.6mb 60f 59f
6:36 22 25 mph 1025.6mb 60f 59f
6:30 23 25 mph 1025.5mb 60f 59f
6:24 23 25 mph 1025.4mb 60f 59f
6:18 22 25 mph 1025.4mb 60f 59f
6:12 23 25 mph 1025.4mb 59f 59f
6:06 22 24 mph 1025.4mb 59f 60f
6:00 23 25 mph 1025.5mb 59f 60f
5:54 23 26 mph 1025.6mb 59f 60f
5:48 24 26 mph 1025.4mb - -
5:42 24 28 mph 1025.5mb 59f 60f
5:36 23 25 mph 1025.5mb 59f 60f
5:30 23 25 mph 1025.5mb 59f 60f
5:24 23 25 mph 1025.4mb 59f 60f
5:18 24 25 mph 1025.5mb 58f 60f
5:12 22 25 mph 1025.5mb 58f 60f
5:06 23 25 mph 1025.5mb 58f 60f
5:00 22 24 mph 1025.5mb 58f 61f
4:54 21 22 mph 1025.6mb 58f 61f
4:48 22 23 mph 1025.6mb 58f 61f
4:42 21 23 mph 1025.6mb 58f 61f
4:36 21 22 mph 1025.6mb 58f 61f
4:30 21 22 mph 1025.7mb 58f 61f
4:24 20 22 mph 1025.8mb 58f 61f
4:18 21 22 mph 1025.8mb 58f 61f
4:12 20 22 mph 1025.8mb 58f 61f
4:06 17 21 mph 1025.9mb 58f 61f
4:00 18 20 mph 1026mb 58f 61f
3:54 20 21 mph 1026.1mb 58f 61f
3:48 17 18 mph 1026.1mb 58f 61f
3:42 16 18 mph 1026.3mb 58f 61f
3:36 18 20 mph 1026.2mb 58f 61f
3:30 18 20 mph 1026.2mb 58f 61f
3:24 18 21 mph 1026.3mb 58f 61f
3:18 20 22 mph 1026.2mb 58f 60f
3:12 20 22 mph 1026.2mb 58f 60f
3:06 18 20 mph 1026.3mb 58f 60f
3:00 18 20 mph 1026.4mb 57f 61f
2:54 20 21 mph 1026.4mb 57f 60f
2:48 18 21 mph 1026.4mb 57f 60f
2:42 18 21 mph 1026.4mb 57f 60f
2:36 18 20 mph 1026.4mb 57f 60f
2:30 17 20 mph 1026.5mb 57f 61f
2:24 17 18 mph 1026.7mb 56f 61f
2:18 17 18 mph 1026.7mb 57f 61f
2:12 17 18 mph 1026.8mb 57f 61f
2:06 17 20 mph 1026.8mb 57f 61f
2:00 18 20 mph 1027mb 57f 60f
1:54 17 18 mph 1026.9mb 57f 60f
1:48 16 17 mph 1027.1mb 57f 61f
1:42 16 17 mph 1027.3mb 57f 61f
1:36 16 17 mph 1027.4mb 58f 61f
1:30 14 15 mph 1027.4mb 58f 61f
1:24 9 10 mph 1027.4mb 58f 62f
1:18 8 9 mph 1027.4mb 59f 62f
1:12 8 8 mph 1027.6mb 60f 62f
1:06 8 8 mph 1027.6mb 60f 62f
1:00 7 8 mph 1027.7mb 60f 62f
12:54 7 8 mph 1027.8mb 59f 62f
12:48 7 8 mph 1027.8mb 59f 62f
12:42 6 6 mph 1028.1mb 59f 62f
12:36 7 7 mph 1028.2mb 59f 62f
12:30 6 7 mph 1028.2mb 59f 62f
12:24 7 7 mph 1028.2mb 59f 61f
12:18 7 7 mph 1028.3mb 59f 61f
12:12 7 7 mph 1028.3mb 60f 61f
12:06 7 8 mph 1028.3mb 60f 61f
12:00 7 8 mph 1028.4mb 59f 61f
11:54 7 7 mph 1028.4mb 60f 61f
11:48 6 7 mph 1028.5mb 60f 60f
11:42 6 7 mph 1028.5mb 60f 60f
11:36 6 7 mph 1028.7mb 60f 60f
11:30 5 5 mph 1028.8mb 60f 60f
11:24 5 5 mph 1028.8mb 60f 60f
11:18 3 3 mph 1028.8mb 60f 60f
11:12 3 3 mph 1028.8mb 59f 60f
11:06 3 5 mph 1028.8mb 59f 59f
11:00 5 5 mph 1029mb 59f 59f
10:54 1 5 mph 1029mb 59f 59f
10:48 2 3 mph 1029.2mb 59f 58f
10:42 2 2 mph 1029.2mb 59f 58f
10:36 1 2 mph 1029.2mb 58f 58f
10:30  -  1 mph 1029.2mb 58f 58f
10:24  -  1 mph 1029.2mb 58f 58f
10:18  -  0 mph 1029.2mb 58f 60f
10:12  -  0 mph 1029.1mb 58f 60f
10:06  -  2 mph 1029mb 58f 61f
10:00 2 3 mph 1028.9mb 59f 60f
9:54 3 5 mph 1028.9mb 59f 60f
9:48 5 5 mph 1028.9mb 60f 60f
9:42 3 5 mph 1028.9mb 60f 60f
9:36 3 5 mph 1029mb 60f 59f
9:30 5 5 mph 1028.9mb 60f 59f
9:24 3 5 mph 1028.9mb 60f 58f
9:18 5 6 mph 1028.9mb 60f 58f
9:12 3 5 mph 1028.7mb 59f 58f
9:06 5 6 mph 1028.7mb 59f 58f
9:00 5 6 mph 1028.7mb 59f 57f
8:54 5 6 mph 1028.8mb 59f 57f
8:48 5 6 mph 1028.7mb 59f 56f
8:42 5 6 mph 1028.7mb 59f 56f
8:36 6 6 mph 1028.6mb 59f 55f
8:30 3 3 mph 1028.8mb 59f 56f
8:24 2 3 mph 1028.9mb 59f 55f
8:18 2 3 mph 1028.9mb 59f 55f
8:12 2 5 mph 1028.9mb 59f 55f
8:06 5 5 mph 1028.9mb 59f 54f
8:00 5 6 mph 1029.1mb 58f 53f
7:54 3 5 mph 1028.9mb 58f 53f
7:48 2 2 mph 1029mb 59f 51f
7:42  -  2 mph 1028.9mb 59f 52f
7:36 1 2 mph 1029mb 59f 51f
7:30  -  0 mph 1029mb 58f 52f
7:24  -  0 mph 1029.1mb 58f 51f
7:18  -  1 mph 1029mb 58f 53f
7:12  -  1 mph 1029.1mb 58f 53f
7:06 1 2 mph 1029.1mb 58f 51f
7:00 1 2 mph 1029mb 58f 51f
6:54 1 2 mph 1028.9mb 59f 51f
6:48 1 2 mph 1028.6mb 59f 50f
6:42 2 3 mph 1028.8mb 59f 50f
6:36 2 3 mph 1028.7mb 59f 50f
6:30 2 3 mph 1028.7mb 59f 50f
6:24 2 3 mph 1028.6mb 59f 50f
6:18 2 3 mph 1028.5mb 59f 50f
6:12 2 2 mph 1028.4mb 59f 50f
6:06 2 3 mph 1028.4mb 59f 50f
6:00 3 3 mph 1028.4mb 59f 50f
5:54  -  1 mph 1028.3mb 59f 50f
5:48  -  1 mph 1028.1mb 59f 50f
5:42 1 2 mph 1028.2mb 59f 50f
5:36  -  2 mph 1028.1mb 59f 50f
5:30  -  2 mph 1028.1mb 58f 50f
5:24 1 2 mph 1028mb 58f 50f
5:18  -  2 mph 1027.9mb 58f 50f
5:12  -  1 mph 1027.9mb 58f 50f
5:06  -  1 mph 1027.8mb 58f 50f
5:00 1 2 mph 1027.7mb 58f 50f
4:54 1 2 mph 1027.8mb 58f 50f
4:48 1 2 mph 1027.8mb 58f 50f
4:42 2 2 mph 1027.8mb 58f 50f
4:36 1 2 mph 1027.8mb 58f 50f
4:30 2 5 mph 1027.9mb 58f 50f
4:24 3 5 mph 1027.9mb 58f 51f
4:18 3 7 mph 1027.9mb 58f 51f
4:12 5 6 mph 1027.9mb 58f 51f
4:06 5 6 mph 1027.7mb 58f 50f
4:00 5 5 mph 1027.7mb 58f 51f
3:54 2 6 mph 1027.7mb 58f 50f
3:48 6 6 mph 1027.7mb 58f 50f
3:42 5 6 mph 1027.6mb 58f 50f
3:36 2 6 mph 1027.7mb 58f 50f
3:30 6 9 mph 1027.6mb 58f 49f
3:24 8 9 mph 1027.4mb 58f 49f
3:18 6 7 mph 1027.4mb 58f 49f
3:12 6 7 mph 1027.4mb 58f 49f
3:06 5 6 mph 1027.5mb 58f 49f
3:00 5 6 mph 1027.4mb 58f 49f
2:54 6 6 mph 1027.3mb 58f 50f
2:48 5 5 mph 1027.2mb 58f 50f
2:42 3 5 mph 1027.1mb 58f 49f
2:36 5 6 mph 1027.2mb 58f 49f
2:30 5 6 mph 1027.3mb 58f 50f
2:24 5 6 mph 1027.4mb 58f 50f
2:18 5 6 mph 1027.5mb 57f 50f
2:12 5 6 mph 1027.6mb 57f 50f
2:06 3 5 mph 1027.5mb 58f 50f
2:00 1 2 mph 1027.4mb 58f 50f
1:54  -  2 mph 1027.4mb 58f 50f
1:48 2 3 mph 1027.5mb 58f 50f
1:42 1 3 mph 1027.5mb 58f 50f
1:36 2 3 mph 1027.5mb 58f 50f
1:30 1 5 mph 1027.6mb 58f 50f
1:24 5 6 mph 1027.7mb 58f 50f
1:18 6 7 mph 1027.7mb 58f 50f
1:12 5 7 mph 1027.7mb 58f 50f
1:06 5 6 mph 1027.7mb 58f 50f
1:00 3 6 mph 1027.7mb 58f 51f
12:54 6 6 mph 1027.7mb 58f 51f
12:48 6 7 mph 1027.6mb 58f 51f
12:42 5 5 mph 1027.7mb 58f 51f
12:36 5 6 mph 1027.7mb 58f 51f
12:30 5 6 mph 1027.6mb 58f 51f
12:24 6 6 mph 1027.5mb 59f 51f
12:18 3 5 mph 1027.4mb 59f 51f
12:12 3 6 mph 1027.4mb 59f 51f
12:06 6 7 mph 1027.3mb 59f 51f
12:00 6 7 mph 1027.3mb 59f 52f
sáb 05/20 11:54 6 7 mph 1027.3mb 59f 52f
11:48 6 8 mph 1027.3mb 59f 52f
11:42 7 8 mph 1027.3mb 59f 52f
11:36 7 8 mph 1027.3mb 59f 52f
11:30 5 7 mph 1027.3mb 59f 52f
11:24 6 6 mph 1027.4mb 59f 52f
11:18 5 7 mph 1027.4mb 59f 52f
11:12 6 7 mph 1027.4mb 59f 52f
11:06 3 5 mph 1027.5mb 59f 52f
11:00 2 5 mph 1027.4mb 59f 53f
10:54 3 5 mph 1027.4mb 59f 53f
10:48 2 7 mph 1027.4mb 59f 53f
10:42 6 8 mph 1027.4mb 59f 53f
10:36 6 7 mph 1027.4mb 59f 53f
10:30 7 9 mph 1027.3mb 59f 53f
10:24 7 8 mph 1027.3mb 59f 53f
10:18 6 9 mph 1027.2mb 59f 53f
10:12 8 10 mph 1027.2mb 59f 53f
10:06 9 11 mph 1027.2mb 59f 53f
10:00 11 13 mph 1027.1mb 59f 53f
9:54 10 11 mph 1027.1mb 59f 53f
9:48 9 11 mph 1027mb 59f 54f
9:42 9 11 mph 1027mb 59f 54f
9:36 10 13 mph 1027.1mb 59f 54f
9:30 10 11 mph 1027.1mb 59f 54f
9:24 10 11 mph 1027mb 59f 54f
9:18 9 11 mph 1026.9mb 59f 54f
9:12 9 11 mph 1026.8mb 59f 55f
9:06 9 11 mph 1026.8mb 59f 55f
9:00 11 13 mph 1026.8mb 59f 55f
8:54 14 17 mph 1026.7mb 59f 55f
8:48 15 17 mph 1026.4mb 59f 55f
8:42 16 17 mph 1026.3mb 59f 55f
8:36 17 18 mph 1026.2mb 59f 55f
8:30 16 17 mph 1026.2mb 58f 55f
8:24 16 17 mph 1026.1mb 58f 55f
8:18 16 18 mph 1026.1mb 58f 55f
8:12 17 18 mph 1026mb 58f 55f
8:06 16 20 mph 1026mb 58f 55f
8:00 17 20 mph 1025.8mb 58f 55f
7:54 18 20 mph 1025.7mb 58f 55f
7:48 17 21 mph 1025.7mb 58f 55f
7:42 18 20 mph 1025.6mb 58f 55f
7:36 17 20 mph 1025.6mb 58f 56f
7:30 17 20 mph 1025.5mb 58f 56f
7:24 18 18 mph 1025.5mb 58f 56f
7:18 16 18 mph 1025.4mb 58f 56f
7:12 17 20 mph 1025.4mb 58f 57f
7:06 16 21 mph 1025.5mb 58f 57f
7:00 18 21 mph 1025.4mb 58f 57f
6:54 18 22 mph 1025.4mb 58f 57f
6:48 20 22 mph 1025.4mb 58f 57f
6:42 22 23 mph 1025.3mb 58f 57f
6:36 22 23 mph 1025.3mb 58f 58f
6:30 22 24 mph 1025.2mb 58f 58f
6:24 23 24 mph 1025.2mb 58f 57f
6:18 23 25 mph 1025.2mb 58f 58f
6:12 24 26 mph 1025.2mb 58f 58f
6:06 24 26 mph 1025.2mb 58f 58f
6:00 24 26 mph 1025.1mb 58f 58f
5:54 25 28 mph 1025.1mb 58f 59f
5:48 24 25 mph 1025.1mb 58f 59f
5:42 24 26 mph 1025mb 57f 59f
5:36 24 26 mph 1024.9mb 57f 59f
5:30 24 25 mph 1024.9mb 57f 60f
5:24 22 25 mph 1024.7mb 57f 60f
5:18 23 25 mph 1024.7mb 57f 60f
5:12 22 25 mph 1024.7mb 57f 61f
5:06 22 24 mph 1024.5mb 57f 61f
5:00 22 23 mph 1024.6mb 57f 60f
4:54 20 21 mph 1024.5mb 57f 62f
4:48 11 13 mph 1024.6mb 57f 64f
4:42 11 11 mph 1024.5mb 56f 64f
4:36 11 13 mph 1024.5mb 56f 63f
4:30 13 14 mph 1024.6mb 57f 63f
4:24 14 15 mph 1024.5mb 57f 63f
4:18 14 15 mph 1024.4mb 57f 63f
4:12 14 15 mph 1024.4mb 57f 63f
4:06 13 14 mph 1024.5mb 57f 63f
4:00 13 14 mph 1024.4mb 57f 63f
3:54 13 14 mph 1024.4mb 56f 63f
3:48 11 13 mph 1024.4mb 56f 63f
3:42 10 10 mph 1024.5mb 56f 63f
3:36 10 11 mph 1024.6mb 56f 63f
3:30 10 10 mph 1024.6mb 56f 63f
3:24 9 10 mph 1024.6mb 57f 63f
3:18 9 11 mph 1024.7mb 57f 63f
3:12 11 11 mph 1024.6mb 57f 62f
3:06 8 9 mph 1024.7mb 57f 63f
3:00 7 8 mph 1024.8mb 57f 63f
2:54 8 9 mph 1024.8mb 57f 63f
2:48 7 8 mph 1024.8mb 56f 63f
2:42 5 6 mph 1024.8mb 56f 63f
2:36 6 8 mph 1024.8mb 56f 63f
2:30 7 8 mph 1024.7mb 56f 63f
2:24 5 6 mph 1024.8mb 56f 63f
2:18 3 6 mph 1024.8mb 55f 63f
2:12 5 8 mph 1024.8mb 55f 63f
2:06 6 6 mph 1024.8mb 56f 67f
2:00 3 10 mph 1024.9mb 56f 66f
1:54 3 5 mph 1024.9mb 57f 66f